Time;durP1;ratioP1;P1;durP2;ratioP2;P2;SDS_P1;SDS_P2;PMS_P1;PMS_P2;Temp;Humidity;BMP_temperature;BMP_pressure;BME280_temperature;BME280_humidity;BME280_pressure;Samples;Min_cycle;Max_cycle;Signal;HPM_P1;HPM_P2
2023/06/19 00:04:26;;;;;;;14.80;9.30;;;;;;;12.76;88.65;98986.50;272405;1278;22263;-82
2023/06/19 00:10:48;;;;;;;14.30;10.80;;;;;;;12.61;88.12;98992.12;271915;1272;22607;-82
2023/06/19 00:17:39;;;;;;;13.60;10.20;;;;;;;12.39;88.86;98996.83;272198;1273;22385;-82
2023/06/19 00:24:02;;;;;;;12.60;10.10;;;;;;;12.28;89.72;99001.16;271695;1271;23972;-82
2023/06/19 00:38:12;;;;;;;12.80;9.90;;;;;;;12.24;90.65;98995.66;271009;1281;22436;-81
2023/06/19 00:44:15;;;;;;;10.80;9.20;;;;;;;12.20;90.59;98994.39;271107;1274;23634;-82
2023/06/19 00:50:37;;;;;;;12.50;9.50;;;;;;;12.10;90.97;98992.31;268715;1280;22668;-82
2023/06/19 00:56:42;;;;;;;11.40;9.10;;;;;;;12.03;91.02;98991.25;268352;1272;26784;-81
2023/06/19 01:02:44;;;;;;;14.70;9.90;;;;;;;11.92;91.47;98988.05;271125;1272;24713;-81
2023/06/19 01:08:56;;;;;;;12.90;10.40;;;;;;;11.83;91.68;98990.90;271119;1272;23145;-82
2023/06/19 01:22:30;;;;;;;12.60;9.80;;;;;;;11.82;92.33;98983.38;269644;1272;23859;-81
2023/06/19 01:29:01;;;;;;;14.20;10.30;;;;;;;11.73;92.28;98979.31;270044;1272;22361;-82
2023/06/19 01:35:04;;;;;;;12.00;9.60;;;;;;;11.60;92.62;98980.85;269963;1272;22714;-82
2023/06/19 01:41:07;;;;;;;12.20;10.30;;;;;;;11.52;92.94;98989.56;270652;1272;25030;-82
2023/06/19 01:47:12;;;;;;;11.40;9.50;;;;;;;11.43;93.10;98991.77;271241;1272;23102;-82
2023/06/19 01:53:16;;;;;;;10.50;8.80;;;;;;;11.38;93.60;98992.98;272142;1272;22566;-82
2023/06/19 01:59:32;;;;;;;14.00;11.80;;;;;;;11.37;93.96;98993.05;271459;1272;22187;-82
2023/06/19 02:05:39;;;;;;;13.80;10.50;;;;;;;11.26;93.67;98996.02;269723;1272;25466;-82
2023/06/19 02:12:00;;;;;;;14.70;10.60;;;;;;;11.10;93.70;98999.33;272168;1272;22259;-81
2023/06/19 02:18:03;;;;;;;13.90;10.40;;;;;;;10.99;94.23;99000.23;271469;1274;25284;-82
2023/06/19 02:24:52;;;;;;;14.10;10.10;;;;;;;11.05;95.10;99005.95;272150;1261;22198;-82
2023/06/19 02:31:11;;;;;;;13.20;10.70;;;;;;;11.06;95.13;99003.20;273089;1272;22203;-81
2023/06/19 02:38:04;;;;;;;15.60;10.70;;;;;;;11.01;94.92;99002.13;273185;1270;22647;-81
2023/06/19 02:45:19;;;;;;;13.00;10.70;;;;;;;10.97;95.28;99002.65;272504;1272;22171;-82
2023/06/19 02:52:44;;;;;;;12.80;10.00;;;;;;;10.95;95.38;99003.58;269129;1279;22359;-81
2023/06/19 02:59:37;;;;;;;13.90;9.90;;;;;;;10.86;95.59;99009.90;271989;1281;22232;-82
2023/06/19 03:06:23;;;;;;;14.70;10.50;;;;;;;10.86;96.13;99010.91;272026;1279;22219;-82
2023/06/19 03:13:22;;;;;;;13.50;10.20;;;;;;;10.89;96.63;99009.29;271641;1272;22175;-81
2023/06/19 03:19:24;;;;;;;13.30;10.90;;;;;;;10.95;97.11;99006.70;272738;1272;22548;-81
2023/06/19 03:25:26;;;;;;;16.30;10.90;;;;;;;10.99;97.26;99007.37;271954;1273;22403;-83
2023/06/19 03:31:50;;;;;;;12.30;10.00;;;;;;;11.03;97.60;99015.92;272911;1273;22170;-81
2023/06/19 03:38:45;;;;;;;11.90;9.70;;;;;;;11.07;97.79;99021.38;273078;1260;23616;-81
2023/06/19 03:44:48;;;;;;;13.70;10.90;;;;;;;11.19;98.51;99022.80;272010;1273;22586;-82
2023/06/19 03:50:59;;;;;;;13.10;10.40;;;;;;;11.30;98.91;99030.66;272034;1273;23080;-81
2023/06/19 03:57:00;;;;;;;15.30;10.00;;;;;;;11.41;99.10;99024.56;270674;1273;23952;-82
2023/06/19 04:03:03;;;;;;;17.20;11.90;;;;;;;11.55;99.26;99023.27;272113;1273;22341;-82
2023/06/19 04:09:51;;;;;;;16.20;11.80;;;;;;;11.66;99.58;99026.28;271826;1273;22224;-82
2023/06/19 04:16:15;;;;;;;18.10;12.20;;;;;;;11.83;100.00;99024.91;272466;1272;23598;-82
2023/06/19 04:22:25;;;;;;;12.90;10.60;;;;;;;12.02;100.00;99021.73;271658;1269;22606;-84
2023/06/19 04:28:27;;;;;;;17.60;12.80;;;;;;;12.20;100.00;99020.58;270807;1272;22570;-83
2023/06/19 04:34:35;;;;;;;17.60;11.90;;;;;;;12.39;100.00;99024.83;270334;1272;22614;-84
2023/06/19 04:41:14;;;;;;;18.10;12.40;;;;;;;12.58;100.00;99025.68;270877;1273;22498;-83
2023/06/19 04:47:19;;;;;;;15.40;11.60;;;;;;;12.81;100.00;99033.20;266203;1272;7097140;-83
2023/06/19 04:53:47;;;;;;;16.80;11.10;;;;;;;12.99;100.00;99036.65;271235;1272;23671;-83
2023/06/19 04:59:49;;;;;;;18.20;12.40;;;;;;;13.22;100.00;99044.31;271486;1272;22631;-83
2023/06/19 05:05:51;;;;;;;14.70;12.30;;;;;;;13.48;100.00;99045.04;270837;1271;23678;-83
2023/06/19 05:11:57;;;;;;;16.70;11.30;;;;;;;13.73;100.00;99033.23;271174;1272;25093;-83
2023/06/19 05:18:02;;;;;;;14.40;10.40;;;;;;;14.04;100.00;99031.85;273165;1273;22209;-84
2023/06/19 05:24:05;;;;;;;13.30;10.60;;;;;;;14.37;100.00;99033.36;271466;1273;22203;-84
2023/06/19 05:30:31;;;;;;;10.80;9.70;;;;;;;14.70;100.00;99036.15;272757;1263;22176;-83
2023/06/19 05:37:03;;;;;;;10.50;8.60;;;;;;;15.05;99.99;99041.23;270723;1271;23416;-84
2023/06/19 05:43:07;;;;;;;10.30;9.00;;;;;;;15.42;99.17;99049.34;272816;1272;22172;-83
2023/06/19 05:49:10;;;;;;;10.50;8.30;;;;;;;15.69;98.22;99054.98;271948;1272;22555;-83
2023/06/19 05:55:15;;;;;;;11.80;8.40;;;;;;;15.97;97.17;99054.02;272674;1273;22191;-83
2023/06/19 06:01:38;;;;;;;8.90;7.50;;;;;;;16.26;96.47;99055.69;272504;1272;22553;-84
2023/06/19 06:08:14;;;;;;;8.40;7.30;;;;;;;16.52;95.74;99058.17;271216;1273;22261;-84
2023/06/19 06:14:37;;;;;;;9.00;7.70;;;;;;;16.76;95.13;99055.45;272730;1267;22334;-83
2023/06/19 06:21:28;;;;;;;8.80;7.50;;;;;;;17.06;94.79;99050.30;271821;1273;22285;-83
2023/06/19 06:28:07;;;;;;;10.00;7.00;;;;;;;17.41;93.94;99049.33;273021;1273;22398;-83
2023/06/19 06:34:09;;;;;;;7.30;6.50;;;;;;;17.76;92.64;99054.86;271085;1272;22334;-83
2023/06/19 06:40:27;;;;;;;7.90;6.60;;;;;;;18.08;91.72;99059.69;271005;1271;22553;-83
2023/06/19 06:46:52;;;;;;;6.90;6.00;;;;;;;18.36;90.80;99066.45;271486;1272;23458;-85
2023/06/19 06:53:10;;;;;;;8.00;6.60;;;;;;;18.74;89.84;99069.84;271750;1273;22346;-84
2023/06/19 07:00:04;;;;;;;7.00;5.60;;;;;;;19.23;89.63;99072.36;272798;1264;23175;-82
2023/06/19 07:06:19;;;;;;;6.60;5.60;;;;;;;19.99;88.95;99079.27;272127;1272;22336;-83
2023/06/19 07:12:24;;;;;;;6.50;5.60;;;;;;;20.81;87.12;99076.59;271452;1265;22444;-84
2023/06/19 07:18:25;;;;;;;8.40;5.10;;;;;;;21.59;84.85;99069.94;270965;1272;22651;-84
2023/06/19 07:24:27;;;;;;;5.30;4.60;;;;;;;22.29;82.39;99065.07;272359;1272;22209;-83
2023/06/19 07:30:52;;;;;;;7.00;5.10;;;;;;;22.84;80.16;99068.52;270808;1271;22739;-82
2023/06/19 07:37:17;;;;;;;5.40;4.90;;;;;;;23.24;78.30;99069.55;271564;1271;22583;-83
2023/06/19 07:43:22;;;;;;;5.50;5.00;;;;;;;23.48;76.01;99080.42;270399;1272;22324;-83
2023/06/19 07:49:29;;;;;;;5.80;5.20;;;;;;;23.75;74.99;99080.77;271662;1262;22544;-83
2023/06/19 07:55:31;;;;;;;6.00;5.10;;;;;;;23.95;73.49;99083.55;272367;1272;22597;-81
2023/06/19 08:02:14;;;;;;;6.90;4.90;;;;;;;24.10;71.77;99085.48;273167;1272;22781;-84
2023/06/19 08:09:01;;;;;;;6.80;5.20;;;;;;;24.12;70.45;99081.95;271953;1272;22262;-84
2023/06/19 08:15:04;;;;;;;7.10;5.20;;;;;;;24.14;69.37;99082.61;271559;1261;22576;-83
2023/06/19 08:21:06;;;;;;;6.90;5.20;;;;;;;24.24;68.46;99078.73;272278;1272;25313;-83
2023/06/19 08:27:23;;;;;;;8.20;5.50;;;;;;;24.45;65.90;99073.95;271729;1262;22240;-83
2023/06/19 08:33:25;;;;;;;5.60;4.80;;;;;;;24.62;64.94;99072.90;272097;1266;22500;-83
2023/06/19 08:40:09;;;;;;;5.60;4.80;;;;;;;24.64;63.32;99073.17;272247;1271;23964;-83
2023/06/19 08:46:41;;;;;;;7.10;4.60;;;;;;;24.66;62.33;99072.50;273165;1271;22210;-82
2023/06/19 08:52:52;;;;;;;5.30;4.20;;;;;;;24.75;62.74;99073.66;271478;1264;22202;-84
2023/06/19 08:59:07;;;;;;;;;;;;;;;;;;;;;
2023/06/19 09:05:23;;;;;;;4.80;3.70;;;;;;;24.68;60.02;99068.84;273271;1269;22417;-83
2023/06/19 09:12:05;;;;;;;6.70;4.40;;;;;;;24.71;59.04;99066.09;273548;1273;22670;-82
2023/06/19 09:25:57;;;;;;;4.50;4.00;;;;;;;25.08;58.08;99057.14;272640;1272;23374;-83
2023/06/19 09:32:00;;;;;;;4.70;4.20;;;;;;;25.33;58.02;99055.27;272835;1272;23826;-83
2023/06/19 09:38:44;;;;;;;4.30;3.90;;;;;;;25.70;55.82;99058.27;271248;1272;23032;-84
2023/06/19 09:44:49;;;;;;;4.50;3.40;;;;;;;25.96;54.03;99056.23;272064;1272;22210;-83
2023/06/19 09:50:54;;;;;;;5.70;4.10;;;;;;;26.34;53.70;99049.84;272043;1272;22584;-83
2023/06/19 09:56:58;;;;;;;4.30;3.90;;;;;;;26.76;52.48;99048.75;269878;1272;22639;-83
2023/06/19 10:03:34;;;;;;;4.00;3.60;;;;;;;26.80;51.01;99042.29;269893;1263;23193;-83
2023/06/19 10:09:36;;;;;;;4.10;3.50;;;;;;;26.89;51.11;99032.92;270305;1270;23289;-84
2023/06/19 10:16:23;;;;;;;7.00;4.20;;;;;;;27.13;50.95;99027.30;270847;1272;22727;-82
2023/06/19 10:22:30;;;;;;;4.50;4.10;;;;;;;27.29;50.73;99028.61;271548;1272;25464;-84
2023/06/19 10:28:34;;;;;;;6.70;3.90;;;;;;;27.61;49.52;99027.27;271936;1272;22357;-86
2023/06/19 10:34:36;;;;;;;4.40;3.80;;;;;;;27.99;48.83;99023.11;272571;1269;22333;-82
2023/06/19 10:41:03;;;;;;;6.10;4.20;;;;;;;28.28;47.98;99016.33;272821;1272;22377;-82
2023/06/19 10:47:24;;;;;;;5.70;4.20;;;;;;;28.43;46.76;99014.25;271659;1272;23768;-82
2023/06/19 10:53:32;;;;;;;5.20;4.50;;;;;;;28.61;46.87;99009.40;269846;1266;23418;-83
2023/06/19 11:00:29;;;;;;;5.10;3.40;;;;;;;28.82;45.85;99008.75;269735;1272;22562;-82
2023/06/19 11:07:12;;;;;;;4.90;3.90;;;;;;;28.73;45.05;99006.71;270817;1272;22583;-84
2023/06/19 11:13:17;;;;;;;5.00;3.80;;;;;;;28.69;45.78;99007.28;272022;1271;22540;-82
2023/06/19 11:19:41;;;;;;;6.80;3.90;;;;;;;28.86;45.33;99010.73;269923;1272;25407;-82
2023/06/19 11:26:34;;;;;;;5.40;3.60;;;;;;;29.18;45.16;99012.00;270334;1272;22594;-84
2023/06/19 11:33:01;;;;;;;4.40;4.00;;;;;;;29.40;43.98;99008.80;270369;1275;22562;-83
2023/06/19 11:39:05;;;;;;;6.30;3.60;;;;;;;29.56;42.36;99002.20;272221;1272;23126;-80
2023/06/19 11:45:08;;;;;;;5.40;3.40;;;;;;;29.56;41.46;98998.81;271480;1272;22558;-82
2023/06/19 11:51:11;;;;;;;3.70;3.40;;;;;;;29.73;41.44;98993.09;271262;1272;23351;-83
2023/06/19 11:57:35;;;;;;;4.00;3.30;;;;;;;29.96;41.05;98988.09;270881;1272;22254;-84
2023/06/19 12:03:38;;;;;;;3.60;3.00;;;;;;;29.67;40.31;98986.11;270800;1272;22634;-84
2023/06/19 12:09:41;;;;;;;4.40;3.70;;;;;;;29.43;40.27;98984.43;271274;1270;22561;-82
2023/06/19 12:15:43;;;;;;;5.60;3.40;;;;;;;29.22;40.17;98987.30;271939;1272;22177;-83
2023/06/19 12:21:45;;;;;;;3.70;3.40;;;;;;;28.66;39.92;98984.41;270494;1272;22588;-83
2023/06/19 12:27:49;;;;;;;4.10;3.40;;;;;;;28.09;40.10;98976.04;271477;1272;22286;-84
2023/06/19 12:34:46;;;;;;;5.20;4.30;;;;;;;27.75;40.93;98972.51;270416;1272;22604;-84
2023/06/19 12:40:48;;;;;;;4.30;3.90;;;;;;;27.74;41.10;98970.81;271924;1273;22514;-83
2023/06/19 12:46:58;;;;;;;4.80;3.80;;;;;;;27.76;41.25;98958.05;271508;1273;22661;-83
2023/06/19 12:54:02;;;;;;;4.30;3.90;;;;;;;27.61;41.13;98950.95;270194;1262;23325;-85
2023/06/19 13:01:30;;;;;;;4.10;3.70;;;;;;;27.40;40.78;98954.73;271978;1273;22301;-82
2023/06/19 13:07:54;;;;;;;4.80;4.30;;;;;;;27.18;40.68;98951.84;272776;1275;22221;-83
2023/06/19 13:14:16;;;;;;;4.10;3.70;;;;;;;27.19;41.56;98948.77;272346;1272;22477;-84
2023/06/19 13:20:17;;;;;;;4.50;3.70;;;;;;;27.18;41.25;98944.62;270827;1272;22726;-82
2023/06/19 13:26:23;;;;;;;4.10;3.40;;;;;;;27.23;41.81;98942.34;271907;1272;22198;-83
2023/06/19 13:32:39;;;;;;;5.20;4.10;;;;;;;27.23;41.59;98939.95;270941;1272;22570;-83
2023/06/19 13:38:40;;;;;;;4.90;4.30;;;;;;;27.09;41.32;98938.91;270910;1272;22515;-85
2023/06/19 13:44:42;;;;;;;8.00;3.90;;;;;;;27.02;40.67;98933.85;271500;1272;22727;-83
2023/06/19 13:51:30;;;;;;;3.70;3.40;;;;;;;27.02;40.87;98931.02;270222;1272;22230;-83
2023/06/19 13:58:08;;;;;;;4.90;3.90;;;;;;;27.10;40.69;98926.71;271860;1272;22349;-83
2023/06/19 14:04:12;;;;;;;5.00;3.90;;;;;;;27.16;40.62;98923.17;271050;1272;22416;-83
2023/06/19 14:10:14;;;;;;;5.90;3.80;;;;;;;27.32;40.77;98930.69;271488;1272;23550;-83
2023/06/19 14:16:16;;;;;;;5.20;4.00;;;;;;;27.44;40.00;98934.30;272595;1272;22190;-83
2023/06/19 14:22:37;;;;;;;5.00;3.80;;;;;;;27.31;40.10;98937.83;271412;1272;22558;-83
2023/06/19 14:28:39;;;;;;;5.10;4.10;;;;;;;26.96;40.18;98941.16;270376;1272;22656;-83
2023/06/19 14:34:45;;;;;;;6.40;4.50;;;;;;;26.80;40.53;98942.79;271281;1272;22571;-83
2023/06/19 14:40:56;;;;;;;4.80;4.30;;;;;;;26.77;40.78;98943.60;271256;1272;24165;-83
2023/06/19 14:47:01;;;;;;;4.40;4.00;;;;;;;26.76;40.95;98940.20;272127;1265;22859;-84
2023/06/19 14:53:03;;;;;;;5.50;4.10;;;;;;;26.70;41.04;98944.30;272152;1262;23083;-84
2023/06/19 18:42:46;;;;;;;10.80;7.30;;;;;;;23.05;54.05;98954.11;267478;1288;22391;-86
2023/06/19 18:49:22;;;;;;;12.70;8.40;;;;;;;22.77;54.54;98957.05;270820;1280;22313;-87
2023/06/19 18:55:27;;;;;;;11.70;8.60;;;;;;;22.59;54.95;98955.45;271773;1271;22355;-84
2023/06/19 19:01:28;;;;;;;16.50;9.60;;;;;;;22.44;55.42;98952.64;271905;1267;23092;-85
2023/06/19 19:07:29;;;;;;;12.80;9.70;;;;;;;22.32;55.81;98960.27;270603;1276;23736;-87
2023/06/19 19:13:30;;;;;;;13.20;9.10;;;;;;;22.18;56.09;98967.53;272101;1264;22391;-85
2023/06/19 19:19:31;;;;;;;15.40;9.00;;;;;;;22.03;56.40;98973.10;270902;1266;24241;-84
2023/06/19 19:25:32;;;;;;;12.80;9.70;;;;;;;21.86;57.72;98978.88;270584;1272;22790;-87
2023/06/19 19:31:33;;;;;;;19.10;11.30;;;;;;;21.53;58.92;98989.66;268909;1269;22544;-86
2023/06/19 19:37:34;;;;;;;18.50;11.80;;;;;;;21.16;59.76;98995.17;269882;1269;22607;-86
2023/06/19 19:43:41;;;;;;;28.90;18.10;;;;;;;20.87;60.81;98996.21;269630;1268;22550;-86
2023/06/19 19:49:43;;;;;;;28.20;17.60;;;;;;;20.49;61.96;99001.95;271705;1272;23048;-86
2023/06/19 19:55:44;;;;;;;26.80;17.70;;;;;;;20.22;62.66;99006.70;271984;1269;22310;-86
2023/06/19 20:01:45;;;;;;;20.40;13.40;;;;;;;20.01;63.66;99007.13;272146;1272;22536;-87
2023/06/19 20:07:47;;;;;;;27.60;15.60;;;;;;;19.82;65.75;99008.42;270294;1260;25306;-86
2023/06/19 20:13:55;;;;;;;20.20;12.80;;;;;;;19.69;65.93;99012.09;270385;1272;22213;-84
2023/06/19 20:19:56;;;;;;;23.50;13.80;;;;;;;19.57;66.26;99022.96;270412;1266;22837;-85
2023/06/19 20:25:59;;;;;;;24.20;13.60;;;;;;;19.43;66.99;99023.38;269543;1260;22589;-85
2023/06/19 20:32:00;;;;;;;18.90;13.50;;;;;;;19.27;67.46;99022.48;270329;1263;22531;-85
2023/06/19 20:38:01;;;;;;;19.90;13.00;;;;;;;19.09;68.04;99030.11;271118;1271;23779;-85
2023/06/19 20:44:05;;;;;;;18.20;13.90;;;;;;;18.93;69.07;99036.48;271013;1266;22495;-86
2023/06/19 20:50:09;;;;;;;17.90;13.80;;;;;;;18.81;69.82;99035.77;271863;1263;22925;-85
2023/06/19 20:57:17;;;;;;;15.80;12.00;;;;;;;18.61;70.32;99034.45;273306;1266;22569;-86
2023/06/19 21:03:35;;;;;;;16.60;12.00;;;;;;;18.32;71.62;99035.65;271188;1266;22323;-85
2023/06/19 21:09:36;;;;;;;15.80;13.50;;;;;;;18.15;72.40;99042.54;272800;1266;22419;-85
2023/06/19 21:15:39;;;;;;;20.90;14.70;;;;;;;17.91;72.99;99041.63;272670;1260;22560;-85
2023/06/19 21:21:43;;;;;;;17.90;14.00;;;;;;;17.76;73.94;99044.02;272791;1261;22497;-85
2023/06/19 21:28:47;;;;;;;20.00;14.30;;;;;;;17.63;74.65;99046.38;271274;1266;22594;-86
2023/06/19 21:35:45;;;;;;;19.80;13.50;;;;;;;17.49;75.84;99042.34;272123;1266;23165;-85
2023/06/19 21:41:46;;;;;;;18.90;13.80;;;;;;;17.38;76.71;99045.17;273526;1256;22409;-86
2023/06/19 21:47:48;;;;;;;14.30;12.40;;;;;;;17.29;77.15;99053.30;273390;1266;22380;-85
2023/06/19 21:53:50;;;;;;;27.90;16.70;;;;;;;17.12;77.61;99060.80;272536;1264;22449;-86
2023/06/19 22:00:03;;;;;;;18.60;15.10;;;;;;;16.95;78.16;99060.40;273457;1267;22362;-87
2023/06/19 22:06:06;;;;;;;20.60;14.30;;;;;;;16.88;79.28;99061.63;272306;1262;22570;-87
2023/06/19 22:12:08;;;;;;;21.20;15.80;;;;;;;16.78;79.69;99061.59;269859;1259;23408;-87
2023/06/19 22:18:09;;;;;;;21.40;17.30;;;;;;;16.60;79.85;99063.54;270579;1266;22552;-87
2023/06/19 22:24:12;;;;;;;20.80;18.10;;;;;;;16.42;80.68;99057.58;272967;1266;23475;-87
2023/06/19 22:30:14;;;;;;;25.40;18.80;;;;;;;16.29;81.50;99056.52;271780;1253;22538;-85
2023/06/19 22:36:16;;;;;;;23.80;18.60;;;;;;;16.16;82.05;99054.77;269455;1263;22519;-86
2023/06/19 22:42:17;;;;;;;19.70;14.60;;;;;;;16.09;83.24;99066.05;271423;1266;23261;-88
2023/06/19 22:48:18;;;;;;;21.40;17.60;;;;;;;16.11;83.71;99062.02;272708;1266;23163;-87
2023/06/19 22:54:20;;;;;;;25.60;20.60;;;;;;;15.97;83.57;99060.01;272221;1267;22574;-86
2023/06/19 23:00:23;;;;;;;28.50;20.30;;;;;;;15.80;84.26;99061.27;272233;1257;23606;-88
2023/06/19 23:06:29;;;;;;;24.70;17.60;;;;;;;15.71;85.12;99066.02;273529;1267;22528;-86
2023/06/19 23:12:37;;;;;;;23.10;19.10;;;;;;;15.72;85.87;99066.55;272702;1260;22898;-87
2023/06/19 23:19:19;;;;;;;;;;;;;;;;;;;;;
2023/06/19 23:25:31;;;;;;;27.10;20.60;;;;;;;15.60;86.22;99059.94;271828;1266;22765;-85
2023/06/19 23:31:33;;;;;;;27.00;20.10;;;;;;;15.42;86.51;99057.86;269642;1266;23174;-87
2023/06/19 23:37:34;;;;;;;25.60;20.00;;;;;;;15.28;87.18;99059.90;269827;1266;22675;-85
2023/06/19 23:43:37;;;;;;;26.30;20.40;;;;;;;15.22;87.78;99062.70;270037;1266;25613;-86
2023/06/19 23:49:40;;;;;;;22.10;19.30;;;;;;;15.15;88.19;99066.38;269752;1267;22569;-85
2023/06/19 23:55:41;;;;;;;22.80;18.60;;;;;;;15.04;88.63;99074.63;270158;1258;22559;-85
